sensor_id;sensor_type;location;lat;lon;timestamp;pressure;altitude;pressure_sealevel;temperature;humidity
66681;BME280;53575;51.366;12.350;2023-03-30T00:01:19;99818.72;;;10.19;89.21
66681;BME280;53575;51.366;12.350;2023-03-30T00:03:45;99812.56;;;10.27;88.93
66681;BME280;53575;51.366;12.350;2023-03-30T00:06:11;99810.75;;;10.32;88.55
66681;BME280;53575;51.366;12.350;2023-03-30T00:08:39;99805.50;;;10.35;88.70
66681;BME280;53575;51.366;12.350;2023-03-30T00:11:11;99792.41;;;10.36;88.49
66681;BME280;53575;51.366;12.350;2023-03-30T00:13:38;99783.81;;;10.28;88.95
66681;BME280;53575;51.366;12.350;2023-03-30T00:16:05;99765.38;;;10.37;88.48
66681;BME280;53575;51.366;12.350;2023-03-30T00:18:31;99749.91;;;10.23;89.14
66681;BME280;53575;51.366;12.350;2023-03-30T00:20:58;99748.22;;;10.19;89.30
66681;BME280;53575;51.366;12.350;2023-03-30T00:23:26;99748.13;;;10.27;89.22
66681;BME280;53575;51.366;12.350;2023-03-30T00:25:52;99736.84;;;10.25;89.09
66681;BME280;53575;51.366;12.350;2023-03-30T00:28:18;99744.66;;;10.23;88.87
66681;BME280;53575;51.366;12.350;2023-03-30T00:30:43;99729.97;;;10.16;89.38
66681;BME280;53575;51.366;12.350;2023-03-30T00:33:08;99742.91;;;10.25;89.08
66681;BME280;53575;51.366;12.350;2023-03-30T00:35:34;99733.28;;;10.29;88.76
66681;BME280;53575;51.366;12.350;2023-03-30T00:38:00;99733.34;;;10.24;88.64
66681;BME280;53575;51.366;12.350;2023-03-30T00:40:29;99745.59;;;10.19;88.83
66681;BME280;53575;51.366;12.350;2023-03-30T00:43:02;99730.75;;;10.21;89.51
66681;BME280;53575;51.366;12.350;2023-03-30T00:45:29;99724.78;;;10.13;89.59
66681;BME280;53575;51.366;12.350;2023-03-30T00:50:36;99715.19;;;10.14;89.86
66681;BME280;53575;51.366;12.350;2023-03-30T00:53:08;99706.53;;;10.12;89.82
66681;BME280;53575;51.366;12.350;2023-03-30T00:55:37;99689.09;;;10.15;89.40
66681;BME280;53575;51.366;12.350;2023-03-30T00:58:05;99697.78;;;10.16;89.54
66681;BME280;53575;51.366;12.350;2023-03-30T01:00:32;99697.66;;;10.25;89.42
66681;BME280;53575;51.366;12.350;2023-03-30T01:03:00;99700.28;;;10.25;89.40
66681;BME280;53575;51.366;12.350;2023-03-30T01:05:28;99696.00;;;10.19;89.47
66681;BME280;53575;51.366;12.350;2023-03-30T01:07:54;99702.22;;;10.09;89.78
66681;BME280;53575;51.366;12.350;2023-03-30T01:10:22;99693.53;;;10.09;90.10
66681;BME280;53575;51.366;12.350;2023-03-30T01:12:48;99697.81;;;10.13;89.84
66681;BME280;53575;51.366;12.350;2023-03-30T01:15:14;99692.66;;;10.07;90.38
66681;BME280;53575;51.366;12.350;2023-03-30T01:18:01;99688.47;;;9.96;90.95
66681;BME280;53575;51.366;12.350;2023-03-30T01:24:05;99683.31;;;9.92;91.61
66681;BME280;53575;51.366;12.350;2023-03-30T01:26:54;99667.44;;;10.07;90.72
66681;BME280;53575;51.366;12.350;2023-03-30T01:34:56;99668.25;;;10.11;90.28
66681;BME280;53575;51.366;12.350;2023-03-30T01:40:03;99672.41;;;10.22;89.88
66681;BME280;53575;51.366;12.350;2023-03-30T01:42:47;99667.19;;;10.24;89.83
66681;BME280;53575;51.366;12.350;2023-03-30T01:50:42;99656.81;;;10.19;90.20
66681;BME280;53575;51.366;12.350;2023-03-30T01:56:02;99646.47;;;10.13;90.85
66681;BME280;53575;51.366;12.350;2023-03-30T01:58:38;99641.22;;;10.15;90.38
66681;BME280;53575;51.366;12.350;2023-03-30T02:01:06;99641.97;;;10.21;90.65
66681;BME280;53575;51.366;12.350;2023-03-30T02:03:36;99631.66;;;10.14;90.51
66681;BME280;53575;51.366;12.350;2023-03-30T02:06:15;99620.19;;;10.22;90.16
66681;BME280;53575;51.366;12.350;2023-03-30T02:08:45;99623.75;;;10.20;90.50
66681;BME280;53575;51.366;12.350;2023-03-30T02:11:14;99610.81;;;10.11;90.69
66681;BME280;53575;51.366;12.350;2023-03-30T02:13:40;99611.75;;;10.08;91.31
66681;BME280;53575;51.366;12.350;2023-03-30T02:16:15;99604.00;;;10.04;91.40
66681;BME280;53575;51.366;12.350;2023-03-30T02:18:42;99598.56;;;10.14;91.16
66681;BME280;53575;51.366;12.350;2023-03-30T02:21:09;99596.03;;;10.11;91.00
66681;BME280;53575;51.366;12.350;2023-03-30T02:23:37;99602.13;;;10.10;91.24
66681;BME280;53575;51.366;12.350;2023-03-30T02:26:05;99588.25;;;10.07;91.91
66681;BME280;53575;51.366;12.350;2023-03-30T02:28:33;99583.88;;;10.09;91.62
66681;BME280;53575;51.366;12.350;2023-03-30T02:30:59;99581.25;;;10.10;91.84
66681;BME280;53575;51.366;12.350;2023-03-30T02:33:41;99576.09;;;10.06;92.09
66681;BME280;53575;51.366;12.350;2023-03-30T02:38:57;99570.91;;;10.02;92.31
66681;BME280;53575;51.366;12.350;2023-03-30T02:41:43;99563.25;;;9.92;92.99
66681;BME280;53575;51.366;12.350;2023-03-30T02:47:20;99569.16;;;10.03;92.49
66681;BME280;53575;51.366;12.350;2023-03-30T02:49:56;99562.50;;;9.84;93.42
66681;BME280;53575;51.366;12.350;2023-03-30T02:55:14;99560.84;;;9.80;93.79
66681;BME280;53575;51.366;12.350;2023-03-30T02:57:45;99559.28;;;9.68;94.34
66681;BME280;53575;51.366;12.350;2023-03-30T03:02:52;99552.31;;;9.70;94.70
66681;BME280;53575;51.366;12.350;2023-03-30T03:05:19;99557.47;;;9.71;94.45
66681;BME280;53575;51.366;12.350;2023-03-30T03:07:45;99560.13;;;9.68;94.38
66681;BME280;53575;51.366;12.350;2023-03-30T03:10:12;99562.75;;;9.70;94.84
66681;BME280;53575;51.366;12.350;2023-03-30T03:12:38;99555.84;;;9.66;95.39
66681;BME280;53575;51.366;12.350;2023-03-30T03:15:03;99551.53;;;9.63;95.66
66681;BME280;53575;51.366;12.350;2023-03-30T03:17:30;99539.28;;;9.67;95.25
66681;BME280;53575;51.366;12.350;2023-03-30T03:20:03;99541.88;;;9.68;94.96
66681;BME280;53575;51.366;12.350;2023-03-30T03:22:29;99535.72;;;9.72;94.99
66681;BME280;53575;51.366;12.350;2023-03-30T03:24:55;99534.09;;;9.65;95.15
66681;BME280;53575;51.366;12.350;2023-03-30T03:27:21;99537.72;;;9.55;95.97
66681;BME280;53575;51.366;12.350;2023-03-30T03:29:46;99535.22;;;9.47;96.49
66681;BME280;53575;51.366;12.350;2023-03-30T03:32:12;99544.66;;;9.56;95.98
66681;BME280;53575;51.366;12.350;2023-03-30T03:34:37;99532.59;;;9.50;96.73
66681;BME280;53575;51.366;12.350;2023-03-30T03:37:04;99523.84;;;9.55;96.39
66681;BME280;53575;51.366;12.350;2023-03-30T03:39:29;99525.59;;;9.54;96.37
66681;BME280;53575;51.366;12.350;2023-03-30T03:41:55;99525.41;;;9.65;95.98
66681;BME280;53575;51.366;12.350;2023-03-30T03:44:21;99537.34;;;9.80;94.85
66681;BME280;53575;51.366;12.350;2023-03-30T03:46:46;99550.41;;;9.81;94.72
66681;BME280;53575;51.366;12.350;2023-03-30T03:49:12;99553.78;;;9.86;93.67
66681;BME280;53575;51.366;12.350;2023-03-30T03:51:37;99560.03;;;9.76;93.94
66681;BME280;53575;51.366;12.350;2023-03-30T03:54:04;99551.34;;;9.75;93.84
66681;BME280;53575;51.366;12.350;2023-03-30T03:56:29;99539.59;;;10.02;92.59
66681;BME280;53575;51.366;12.350;2023-03-30T03:58:55;99539.00;;;9.87;93.16
66681;BME280;53575;51.366;12.350;2023-03-30T04:01:21;99540.69;;;9.89;93.09
66681;BME280;53575;51.366;12.350;2023-03-30T04:03:46;99544.94;;;9.96;92.48
66681;BME280;53575;51.366;12.350;2023-03-30T04:06:12;99539.75;;;9.92;92.86
66681;BME280;53575;51.366;12.350;2023-03-30T04:08:37;99547.56;;;9.95;92.91
66681;BME280;53575;51.366;12.350;2023-03-30T04:11:10;99540.41;;;10.06;91.80
66681;BME280;53575;51.366;12.350;2023-03-30T04:13:37;99540.41;;;10.06;91.37
66681;BME280;53575;51.366;12.350;2023-03-30T04:16:03;99533.44;;;10.07;91.30
66681;BME280;53575;51.366;12.350;2023-03-30T04:18:30;99527.22;;;10.15;90.86
66681;BME280;53575;51.366;12.350;2023-03-30T04:20:58;99533.25;;;10.17;90.61
66681;BME280;53575;51.366;12.350;2023-03-30T04:23:30;99531.47;;;10.21;90.15
66681;BME280;53575;51.366;12.350;2023-03-30T04:25:59;99530.56;;;10.23;90.61
66681;BME280;53575;51.366;12.350;2023-03-30T04:28:27;99524.44;;;10.28;89.60
66681;BME280;53575;51.366;12.350;2023-03-30T04:31:02;99520.97;;;10.25;89.95
66681;BME280;53575;51.366;12.350;2023-03-30T04:33:28;99524.47;;;10.23;89.97
66681;BME280;53575;51.366;12.350;2023-03-30T04:35:54;99521.56;;;10.41;89.04
66681;BME280;53575;51.366;12.350;2023-03-30T04:38:19;99522.41;;;10.43;88.71
66681;BME280;53575;51.366;12.350;2023-03-30T04:40:49;99532.13;;;10.35;88.99
66681;BME280;53575;51.366;12.350;2023-03-30T04:43:19;99512.91;;;10.38;89.12
66681;BME280;53575;51.366;12.350;2023-03-30T04:45:50;99503.41;;;10.34;88.64
66681;BME280;53575;51.366;12.350;2023-03-30T04:48:16;99513.00;;;10.33;89.40
66681;BME280;53575;51.366;12.350;2023-03-30T04:50:44;99502.53;;;10.35;89.04
66681;BME280;53575;51.366;12.350;2023-03-30T04:53:10;99504.44;;;10.27;89.58
66681;BME280;53575;51.366;12.350;2023-03-30T04:55:36;99496.53;;;10.30;89.31
66681;BME280;53575;51.366;12.350;2023-03-30T04:58:02;99493.63;;;10.46;88.80
66681;BME280;53575;51.366;12.350;2023-03-30T05:00:27;99487.81;;;10.29;88.54
66681;BME280;53575;51.366;12.350;2023-03-30T05:02:53;99498.19;;;10.34;88.46
66681;BME280;53575;51.366;12.350;2023-03-30T05:05:18;99508.66;;;10.32;89.17
66681;BME280;53575;51.366;12.350;2023-03-30T05:07:44;99525.19;;;10.33;88.75
66681;BME280;53575;51.366;12.350;2023-03-30T05:10:10;99514.66;;;10.39;88.31
66681;BME280;53575;51.366;12.350;2023-03-30T05:12:36;99512.00;;;10.42;88.85
66681;BME280;53575;51.366;12.350;2023-03-30T05:15:01;99497.00;;;10.52;87.90
66681;BME280;53575;51.366;12.350;2023-03-30T05:17:27;99510.03;;;10.53;87.32
66681;BME280;53575;51.366;12.350;2023-03-30T05:19:52;99508.25;;;10.55;87.26
66681;BME280;53575;51.366;12.350;2023-03-30T05:22:18;99494.13;;;10.65;87.01
66681;BME280;53575;51.366;12.350;2023-03-30T05:24:44;99502.97;;;10.58;87.29
66681;BME280;53575;51.366;12.350;2023-03-30T05:27:09;99505.44;;;10.66;87.00
66681;BME280;53575;51.366;12.350;2023-03-30T05:29:35;99506.34;;;10.65;86.30
66681;BME280;53575;51.366;12.350;2023-03-30T05:32:01;99506.34;;;10.63;86.57
66681;BME280;53575;51.366;12.350;2023-03-30T05:34:26;99509.00;;;10.62;86.46
66681;BME280;53575;51.366;12.350;2023-03-30T05:36:52;99508.84;;;10.68;86.80
66681;BME280;53575;51.366;12.350;2023-03-30T05:39:18;99510.38;;;10.80;85.82
66681;BME280;53575;51.366;12.350;2023-03-30T05:41:44;99506.88;;;10.81;85.35
66681;BME280;53575;51.366;12.350;2023-03-30T05:44:10;99521.72;;;10.80;85.33
66681;BME280;53575;51.366;12.350;2023-03-30T05:46:36;99504.13;;;10.87;84.98
66681;BME280;53575;51.366;12.350;2023-03-30T05:49:01;99504.19;;;10.85;85.04
66681;BME280;53575;51.366;12.350;2023-03-30T05:51:27;99499.75;;;10.89;84.76
66681;BME280;53575;51.366;12.350;2023-03-30T05:53:52;99480.44;;;10.96;83.94
66681;BME280;53575;51.366;12.350;2023-03-30T05:56:17;99474.84;;;11.13;82.84
66681;BME280;53575;51.366;12.350;2023-03-30T05:58:43;99457.25;;;11.19;82.44
66681;BME280;53575;51.366;12.350;2023-03-30T06:01:08;99454.03;;;11.08;82.53
66681;BME280;53575;51.366;12.350;2023-03-30T06:03:34;99441.59;;;11.18;82.24
66681;BME280;53575;51.366;12.350;2023-03-30T06:06:00;99444.91;;;11.26;81.76
66681;BME280;53575;51.366;12.350;2023-03-30T06:08:25;99460.66;;;11.23;82.01
66681;BME280;53575;51.366;12.350;2023-03-30T06:10:55;99453.75;;;11.20;82.02
66681;BME280;53575;51.366;12.350;2023-03-30T06:13:20;99454.72;;;11.16;82.83
66681;BME280;53575;51.366;12.350;2023-03-30T06:15:46;99452.84;;;11.21;81.47
66681;BME280;53575;51.366;12.350;2023-03-30T06:18:12;99441.09;;;11.39;80.81
66681;BME280;53575;51.366;12.350;2023-03-30T06:20:38;99438.34;;;11.45;80.14
66681;BME280;53575;51.366;12.350;2023-03-30T06:23:04;99440.75;;;11.55;80.11
66681;BME280;53575;51.366;12.350;2023-03-30T06:25:29;99437.91;;;11.64;80.14
66681;BME280;53575;51.366;12.350;2023-03-30T06:27:55;99425.03;;;11.56;81.34
66681;BME280;53575;51.366;12.350;2023-03-30T06:30:20;99434.72;;;11.51;82.48
66681;BME280;53575;51.366;12.350;2023-03-30T06:32:46;99418.28;;;11.46;81.56
66681;BME280;53575;51.366;12.350;2023-03-30T06:35:12;99418.03;;;11.57;80.32
66681;BME280;53575;51.366;12.350;2023-03-30T06:37:40;99414.97;;;11.74;79.33
66681;BME280;53575;51.366;12.350;2023-03-30T06:40:06;99424.84;;;11.62;80.20
66681;BME280;53575;51.366;12.350;2023-03-30T06:42:38;99424.25;;;11.51;80.63
66681;BME280;53575;51.366;12.350;2023-03-30T06:45:05;99417.50;;;11.42;81.14
66681;BME280;53575;51.366;12.350;2023-03-30T06:47:31;99419.84;;;11.53;80.65
66681;BME280;53575;51.366;12.350;2023-03-30T06:49:57;99421.53;;;11.56;80.46
66681;BME280;53575;51.366;12.350;2023-03-30T06:52:22;99415.22;;;11.64;80.47
66681;BME280;53575;51.366;12.350;2023-03-30T06:54:47;99417.00;;;11.62;80.41
66681;BME280;53575;51.366;12.350;2023-03-30T06:57:13;99404.38;;;11.78;79.59
66681;BME280;53575;51.366;12.350;2023-03-30T06:59:38;99398.34;;;11.76;80.57
66681;BME280;53575;51.366;12.350;2023-03-30T07:02:04;99399.94;;;11.83;80.02
66681;BME280;53575;51.366;12.350;2023-03-30T07:04:31;99404.00;;;11.95;80.32
66681;BME280;53575;51.366;12.350;2023-03-30T07:06:57;99414.16;;;12.38;78.63
66681;BME280;53575;51.366;12.350;2023-03-30T07:09:24;99415.00;;;12.70;77.40
66681;BME280;53575;51.366;12.350;2023-03-30T07:11:50;99411.22;;;13.08;75.68
66681;BME280;53575;51.366;12.350;2023-03-30T07:14:15;99422.00;;;13.29;75.04
66681;BME280;53575;51.366;12.350;2023-03-30T07:16:41;99421.69;;;13.38;74.87
66681;BME280;53575;51.366;12.350;2023-03-30T07:19:06;99423.22;;;13.45;75.01
66681;BME280;53575;51.366;12.350;2023-03-30T07:21:32;99430.69;;;13.57;74.86
66681;BME280;53575;51.366;12.350;2023-03-30T07:23:58;99432.38;;;13.60;74.98
66681;BME280;53575;51.366;12.350;2023-03-30T07:26:28;99426.88;;;13.68;75.39
66681;BME280;53575;51.366;12.350;2023-03-30T07:28:54;99424.41;;;13.89;75.38
66681;BME280;53575;51.366;12.350;2023-03-30T07:31:20;99418.88;;;13.97;75.51
66681;BME280;53575;51.366;12.350;2023-03-30T07:33:46;99414.22;;;14.05;75.50
66681;BME280;53575;51.366;12.350;2023-03-30T07:36:12;99417.38;;;14.15;75.63
66681;BME280;53575;51.366;12.350;2023-03-30T07:38:38;99412.31;;;14.34;74.81
66681;BME280;53575;51.366;12.350;2023-03-30T07:41:11;99419.06;;;14.41;75.17
66681;BME280;53575;51.366;12.350;2023-03-30T07:43:37;99421.41;;;14.50;75.05
66681;BME280;53575;51.366;12.350;2023-03-30T07:46:07;99416.09;;;14.52;75.42
66681;BME280;53575;51.366;12.350;2023-03-30T07:48:33;99416.91;;;14.54;75.91
66681;BME280;53575;51.366;12.350;2023-03-30T07:51:04;99419.28;;;14.83;74.89
66681;BME280;53575;51.366;12.350;2023-03-30T07:53:30;99433.31;;;15.07;74.21
66681;BME280;53575;51.366;12.350;2023-03-30T07:55:56;99424.41;;;15.10;73.91
66681;BME280;53575;51.366;12.350;2023-03-30T07:58:21;99422.41;;;15.17;73.73
66681;BME280;53575;51.366;12.350;2023-03-30T08:00:47;99424.97;;;15.40;73.17
66681;BME280;53575;51.366;12.350;2023-03-30T08:03:13;99430.66;;;15.29;72.80
66681;BME280;53575;51.366;12.350;2023-03-30T08:05:38;99430.22;;;15.18;73.04
66681;BME280;53575;51.366;12.350;2023-03-30T08:08:04;99444.72;;;15.06;73.47
66681;BME280;53575;51.366;12.350;2023-03-30T08:10:29;99448.50;;;14.99;73.70
66681;BME280;53575;51.366;12.350;2023-03-30T08:12:56;99440.78;;;14.95;74.12
66681;BME280;53575;51.366;12.350;2023-03-30T08:15:22;99446.34;;;14.87;74.47
66681;BME280;53575;51.366;12.350;2023-03-30T08:17:47;99454.31;;;14.85;74.63
66681;BME280;53575;51.366;12.350;2023-03-30T08:20:12;99452.31;;;14.92;74.47
66681;BME280;53575;51.366;12.350;2023-03-30T08:22:39;99447.25;;;14.86;74.42
66681;BME280;53575;51.366;12.350;2023-03-30T08:25:05;99453.84;;;14.98;74.46
66681;BME280;53575;51.366;12.350;2023-03-30T08:27:30;99455.34;;;14.81;74.99
66681;BME280;53575;51.366;12.350;2023-03-30T08:29:56;99464.75;;;14.87;74.83
66681;BME280;53575;51.366;12.350;2023-03-30T08:32:21;99454.59;;;14.78;74.86
66681;BME280;53575;51.366;12.350;2023-03-30T08:34:47;99463.81;;;14.65;75.42
66681;BME280;53575;51.366;12.350;2023-03-30T08:37:13;99456.19;;;14.58;75.65
66681;BME280;53575;51.366;12.350;2023-03-30T08:39:38;99465.09;;;14.54;75.75
66681;BME280;53575;51.366;12.350;2023-03-30T08:44:52;99468.91;;;14.44;76.11
66681;BME280;53575;51.366;12.350;2023-03-30T08:47:28;99463.59;;;14.46;76.03
66681;BME280;53575;51.366;12.350;2023-03-30T08:50:34;99471.72;;;14.39;76.24
66681;BME280;53575;51.366;12.350;2023-03-30T08:52:53;99467.03;;;14.23;77.03
66681;BME280;53575;51.366;12.350;2023-03-30T08:55:25;99469.06;;;14.14;77.33
66681;BME280;53575;51.366;12.350;2023-03-30T08:57:58;99475.50;;;14.06;77.59
66681;BME280;53575;51.366;12.350;2023-03-30T09:03:50;99464.03;;;14.08;77.46
66681;BME280;53575;51.366;12.350;2023-03-30T09:06:34;99461.59;;;14.02;77.29
66681;BME280;53575;51.366;12.350;2023-03-30T09:09:04;99456.19;;;14.07;76.92
66681;BME280;53575;51.366;12.350;2023-03-30T09:11:32;99451.00;;;14.05;77.09
66681;BME280;53575;51.366;12.350;2023-03-30T09:14:03;99457.78;;;14.11;77.02
66681;BME280;53575;51.366;12.350;2023-03-30T09:18:56;99448.44;;;14.29;76.07
66681;BME280;53575;51.366;12.350;2023-03-30T09:21:26;99446.09;;;14.45;75.46
66681;BME280;53575;51.366;12.350;2023-03-30T09:23:54;99444.31;;;14.47;75.24
66681;BME280;53575;51.366;12.350;2023-03-30T09:26:30;99442.22;;;14.56;75.12
66681;BME280;53575;51.366;12.350;2023-03-30T09:31:40;99442.97;;;14.83;73.91
66681;BME280;53575;51.366;12.350;2023-03-30T09:34:29;99444.75;;;14.83;73.97
66681;BME280;53575;51.366;12.350;2023-03-30T09:37:04;99455.72;;;14.94;73.81
66681;BME280;53575;51.366;12.350;2023-03-30T09:39:31;99455.03;;;14.89;74.08
66681;BME280;53575;51.366;12.350;2023-03-30T09:42:06;99455.09;;;14.87;73.76
66681;BME280;53575;51.366;12.350;2023-03-30T09:46:58;99444.00;;;14.79;74.58
66681;BME280;53575;51.366;12.350;2023-03-30T09:49:27;99446.81;;;14.75;74.66
66681;BME280;53575;51.366;12.350;2023-03-30T09:54:36;99442.28;;;14.78;75.13
66681;BME280;53575;51.366;12.350;2023-03-30T09:57:02;99432.72;;;14.76;75.50
66681;BME280;53575;51.366;12.350;2023-03-30T09:59:34;99440.50;;;14.79;75.74
66681;BME280;53575;51.366;12.350;2023-03-30T10:09:58;99428.84;;;15.53;73.99
66681;BME280;53575;51.366;12.350;2023-03-30T10:12:24;99432.88;;;15.84;72.95
66681;BME280;53575;51.366;12.350;2023-03-30T10:14:55;99443.34;;;16.06;72.34
66681;BME280;53575;51.366;12.350;2023-03-30T10:17:24;99433.47;;;16.31;71.25
66681;BME280;53575;51.366;12.350;2023-03-30T10:19:53;99433.59;;;16.28;71.27
66681;BME280;53575;51.366;12.350;2023-03-30T10:22:47;99437.66;;;16.37;70.97
66681;BME280;53575;51.366;12.350;2023-03-30T10:25:19;99432.41;;;16.36;71.11
66681;BME280;53575;51.366;12.350;2023-03-30T10:27:49;99433.34;;;16.35;70.65
66681;BME280;53575;51.366;12.350;2023-03-30T10:30:18;99427.47;;;16.28;71.33
66681;BME280;53575;51.366;12.350;2023-03-30T10:32:44;99429.06;;;16.32;71.02
66681;BME280;53575;51.366;12.350;2023-03-30T10:35:18;99429.88;;;16.34;71.15
66681;BME280;53575;51.366;12.350;2023-03-30T10:37:45;99411.94;;;16.22;71.69
66681;BME280;53575;51.366;12.350;2023-03-30T10:40:22;99415.91;;;16.12;72.10
66681;BME280;53575;51.366;12.350;2023-03-30T10:42:51;99427.28;;;15.92;72.70
66681;BME280;53575;51.366;12.350;2023-03-30T10:45:25;99410.78;;;15.66;73.67
66681;BME280;53575;51.366;12.350;2023-03-30T10:53:41;99405.22;;;16.15;72.31
66681;BME280;53575;51.366;12.350;2023-03-30T11:04:40;99394.91;;;16.29;71.94
66681;BME280;53575;51.366;12.350;2023-03-30T11:07:15;99386.31;;;16.44;71.63
66681;BME280;53575;51.366;12.350;2023-03-30T11:09:53;99383.19;;;16.36;72.03
66681;BME280;53575;51.366;12.350;2023-03-30T11:12:20;99386.19;;;16.47;72.02
66681;BME280;53575;51.366;12.350;2023-03-30T11:14:57;99369.84;;;16.39;72.43
66681;BME280;53575;51.366;12.350;2023-03-30T11:17:28;99371.47;;;16.23;73.01
66681;BME280;53575;51.366;12.350;2023-03-30T11:19:57;99373.13;;;16.05;73.54
66681;BME280;53575;51.366;12.350;2023-03-30T11:22:44;99368.66;;;16.07;74.17
66681;BME280;53575;51.366;12.350;2023-03-30T11:25:18;99363.72;;;16.39;73.34
66681;BME280;53575;51.366;12.350;2023-03-30T11:28:12;99358.13;;;16.46;72.97
66681;BME280;53575;51.366;12.350;2023-03-30T11:30:42;99350.47;;;16.79;71.10
66681;BME280;53575;51.366;12.350;2023-03-30T11:35:56;99342.81;;;16.92;70.26
66681;BME280;53575;51.366;12.350;2023-03-30T11:38:31;99337.44;;;16.94;70.44
66681;BME280;53575;51.366;12.350;2023-03-30T11:41:00;99337.66;;;16.70;70.62
66681;BME280;53575;51.366;12.350;2023-03-30T11:43:29;99339.81;;;16.81;70.60
66681;BME280;53575;51.366;12.350;2023-03-30T11:51:48;99309.31;;;17.12;69.68
66681;BME280;53575;51.366;12.350;2023-03-30T12:05:35;99282.25;;;18.11;65.15
66681;BME280;53575;51.366;12.350;2023-03-30T12:10:38;99284.75;;;18.79;62.11
66681;BME280;53575;51.366;12.350;2023-03-30T12:13:06;99271.97;;;18.38;62.94
66681;BME280;53575;51.366;12.350;2023-03-30T12:15:59;99276.75;;;18.31;63.44
66681;BME280;53575;51.366;12.350;2023-03-30T12:18:37;99276.03;;;18.27;62.96
66681;BME280;53575;51.366;12.350;2023-03-30T12:24:03;99271.91;;;18.39;63.68
66681;BME280;53575;51.366;12.350;2023-03-30T12:26:36;99263.56;;;18.79;62.76
66681;BME280;53575;51.366;12.350;2023-03-30T12:32:02;99252.72;;;18.83;62.57
66681;BME280;53575;51.366;12.350;2023-03-30T12:34:33;99241.97;;;18.55;63.54
66681;BME280;53575;51.366;12.350;2023-03-30T12:37:20;99253.41;;;18.55;63.79
66681;BME280;53575;51.366;12.350;2023-03-30T12:39:55;99262.34;;;18.52;64.42
66681;BME280;53575;51.366;12.350;2023-03-30T12:42:24;99252.53;;;18.55;63.97
66681;BME280;53575;51.366;12.350;2023-03-30T12:47:39;99268.81;;;18.31;63.73
66681;BME280;53575;51.366;12.350;2023-03-30T12:52:56;99284.94;;;18.42;61.23
66681;BME280;53575;51.366;12.350;2023-03-30T13:06:30;99273.81;;;19.15;56.62
66681;BME280;53575;51.366;12.350;2023-03-30T13:12:06;99267.88;;;18.16;58.04
66681;BME280;53575;51.366;12.350;2023-03-30T13:14:45;99270.03;;;18.08;58.25
66681;BME280;53575;51.366;12.350;2023-03-30T13:29:57;99296.22;;;17.45;58.35
66681;BME280;53575;51.366;12.350;2023-03-30T13:40:20;99271.78;;;18.09;55.90
66681;BME280;53575;51.366;12.350;2023-03-30T13:48:57;99259.94;;;18.16;55.78
66681;BME280;53575;51.366;12.350;2023-03-30T13:51:23;99256.59;;;18.13;55.68
66681;BME280;53575;51.366;12.350;2023-03-30T13:54:02;99259.28;;;17.95;56.23
66681;BME280;53575;51.366;12.350;2023-03-30T13:56:34;99260.78;;;17.84;56.22
66681;BME280;53575;51.366;12.350;2023-03-30T13:59:11;99269.19;;;17.57;56.10
66681;BME280;53575;51.366;12.350;2023-03-30T14:01:38;99506.19;;;16.78;56.07
66681;BME280;53575;51.366;12.350;2023-03-30T14:04:07;99386.41;;;15.39;59.99
66681;BME280;53575;51.366;12.350;2023-03-30T14:06:41;99371.53;;;14.47;66.16
66681;BME280;53575;51.366;12.350;2023-03-30T14:09:11;99392.28;;;14.06;68.62
66681;BME280;53575;51.366;12.350;2023-03-30T14:14:17;99392.00;;;13.08;77.49
66681;BME280;53575;51.366;12.350;2023-03-30T14:16:47;99395.16;;;12.91;83.03
66681;BME280;53575;51.366;12.350;2023-03-30T14:19:32;99408.50;;;12.23;87.98
66681;BME280;53575;51.366;12.350;2023-03-30T14:22:02;99409.81;;;11.70;96.60
66681;BME280;53575;51.366;12.350;2023-03-30T14:24:34;99410.94;;;10.86;100.00
66681;BME280;53575;51.366;12.350;2023-03-30T14:27:02;99412.50;;;10.54;100.00
66681;BME280;53575;51.366;12.350;2023-03-30T14:29:28;99437.22;;;10.36;100.00
66681;BME280;53575;51.366;12.350;2023-03-30T14:31:59;99420.09;;;10.18;100.00
66681;BME280;53575;51.366;12.350;2023-03-30T14:34:27;99423.78;;;10.08;100.00
66681;BME280;53575;51.366;12.350;2023-03-30T14:36:54;99416.06;;;10.02;100.00
66681;BME280;53575;51.366;12.350;2023-03-30T14:39:22;99416.16;;;9.97;100.00
66681;BME280;53575;51.366;12.350;2023-03-30T14:41:48;99410.13;;;9.94;100.00
66681;BME280;53575;51.366;12.350;2023-03-30T14:44:16;99406.66;;;9.92;100.00
66681;BME280;53575;51.366;12.350;2023-03-30T14:46:46;99411.13;;;9.88;100.00
66681;BME280;53575;51.366;12.350;2023-03-30T14:49:27;99405.81;;;9.93;100.00
66681;BME280;53575;51.366;12.350;2023-03-30T14:52:15;99387.59;;;9.90;100.00
66681;BME280;53575;51.366;12.350;2023-03-30T14:54:42;99381.38;;;9.95;100.00
66681;BME280;53575;51.366;12.350;2023-03-30T14:57:11;99365.66;;;9.98;100.00
66681;BME280;53575;51.366;12.350;2023-03-30T14:59:56;99373.34;;;10.06;100.00
66681;BME280;53575;51.366;12.350;2023-03-30T15:02:28;99366.47;;;10.02;100.00
66681;BME280;53575;51.366;12.350;2023-03-30T15:04:56;99378.41;;;10.15;100.00
66681;BME280;53575;51.366;12.350;2023-03-30T15:07:22;99364.38;;;10.21;100.00
66681;BME280;53575;51.366;12.350;2023-03-30T15:09:56;99380.81;;;10.28;100.00
66681;BME280;53575;51.366;12.350;2023-03-30T15:14:50;99368.25;;;10.45;100.00
66681;BME280;53575;51.366;12.350;2023-03-30T15:17:20;99386.59;;;10.43;100.00
66681;BME280;53575;51.366;12.350;2023-03-30T15:19:49;99385.56;;;10.49;100.00
66681;BME280;53575;51.366;12.350;2023-03-30T15:22:40;99383.75;;;10.54;100.00
66681;BME280;53575;51.366;12.350;2023-03-30T15:25:12;99380.94;;;10.63;100.00
66681;BME280;53575;51.366;12.350;2023-03-30T15:27:41;99380.78;;;10.71;100.00
66681;BME280;53575;51.366;12.350;2023-03-30T15:30:37;99387.47;;;10.83;100.00
66681;BME280;53575;51.366;12.350;2023-03-30T15:33:01;99392.66;;;10.86;100.00